sensor_id;sensor_type;location;lat;lon;timestamp;pressure;altitude;pressure_sealevel;temperature;humidity
60832;BME280;46665;51.558;-0.448;2023-06-19T00:00:00;100338.19;;;15.25;100.00
60832;BME280;46665;51.558;-0.448;2023-06-19T00:02:25;100337.53;;;15.28;100.00
60832;BME280;46665;51.558;-0.448;2023-06-19T00:04:51;100343.47;;;15.22;100.00
60832;BME280;46665;51.558;-0.448;2023-06-19T00:07:16;100348.16;;;15.21;100.00
60832;BME280;46665;51.558;-0.448;2023-06-19T00:09:41;100341.72;;;15.26;100.00
60832;BME280;46665;51.558;-0.448;2023-06-19T00:12:07;100336.56;;;15.24;100.00
60832;BME280;46665;51.558;-0.448;2023-06-19T00:14:32;100339.78;;;15.26;100.00
60832;BME280;46665;51.558;-0.448;2023-06-19T00:16:58;100332.06;;;15.20;100.00
60832;BME280;46665;51.558;-0.448;2023-06-19T00:19:26;100337.34;;;15.16;100.00
60832;BME280;46665;51.558;-0.448;2023-06-19T00:21:51;100336.84;;;15.14;100.00
60832;BME280;46665;51.558;-0.448;2023-06-19T00:24:23;100336.41;;;15.12;100.00
60832;BME280;46665;51.558;-0.448;2023-06-19T00:26:48;100336.53;;;15.07;100.00
60832;BME280;46665;51.558;-0.448;2023-06-19T00:29:14;100338.00;;;15.04;100.00
60832;BME280;46665;51.558;-0.448;2023-06-19T00:31:39;100328.78;;;15.00;100.00
60832;BME280;46665;51.558;-0.448;2023-06-19T00:34:04;100326.81;;;14.92;100.00
60832;BME280;46665;51.558;-0.448;2023-06-19T00:36:30;100329.22;;;14.93;100.00
60832;BME280;46665;51.558;-0.448;2023-06-19T00:38:56;100347.75;;;14.88;100.00
60832;BME280;46665;51.558;-0.448;2023-06-19T00:41:21;100333.25;;;14.87;100.00
60832;BME280;46665;51.558;-0.448;2023-06-19T00:43:47;100340.03;;;14.90;100.00
60832;BME280;46665;51.558;-0.448;2023-06-19T00:46:13;100341.47;;;14.87;100.00
60832;BME280;46665;51.558;-0.448;2023-06-19T00:48:39;100339.88;;;14.86;100.00
60832;BME280;46665;51.558;-0.448;2023-06-19T00:51:04;100336.78;;;14.88;100.00
60832;BME280;46665;51.558;-0.448;2023-06-19T00:53:30;100341.63;;;14.91;100.00
60832;BME280;46665;51.558;-0.448;2023-06-19T00:55:58;100346.00;;;14.92;100.00
60832;BME280;46665;51.558;-0.448;2023-06-19T00:58:24;100332.75;;;14.85;100.00
60832;BME280;46665;51.558;-0.448;2023-06-19T01:00:50;100352.72;;;14.86;100.00
60832;BME280;46665;51.558;-0.448;2023-06-19T01:03:16;100353.44;;;14.91;100.00
60832;BME280;46665;51.558;-0.448;2023-06-19T01:05:42;100354.38;;;14.95;100.00
60832;BME280;46665;51.558;-0.448;2023-06-19T01:10:57;100354.38;;;14.95;100.00
60832;BME280;46665;51.558;-0.448;2023-06-19T01:13:36;100347.78;;;14.97;100.00
60832;BME280;46665;51.558;-0.448;2023-06-19T01:16:03;100359.56;;;14.97;100.00
60832;BME280;46665;51.558;-0.448;2023-06-19T01:18:30;100351.97;;;14.94;100.00
60832;BME280;46665;51.558;-0.448;2023-06-19T01:20:57;100348.56;;;14.88;100.00
60832;BME280;46665;51.558;-0.448;2023-06-19T01:23:22;100346.16;;;14.87;100.00
60832;BME280;46665;51.558;-0.448;2023-06-19T01:25:47;100348.69;;;14.83;100.00
60832;BME280;46665;51.558;-0.448;2023-06-19T01:28:13;100340.97;;;14.77;100.00
60832;BME280;46665;51.558;-0.448;2023-06-19T01:30:41;100343.50;;;14.73;100.00
60832;BME280;46665;51.558;-0.448;2023-06-19T01:33:23;100348.19;;;14.72;100.00
60832;BME280;46665;51.558;-0.448;2023-06-19T01:35:51;100357.84;;;14.70;100.00
60832;BME280;46665;51.558;-0.448;2023-06-19T01:38:19;100355.09;;;14.70;100.00
60832;BME280;46665;51.558;-0.448;2023-06-19T01:40:48;100352.63;;;14.60;100.00
60832;BME280;46665;51.558;-0.448;2023-06-19T01:43:15;100355.69;;;14.58;100.00
60832;BME280;46665;51.558;-0.448;2023-06-19T01:45:41;100359.25;;;14.59;100.00
60832;BME280;46665;51.558;-0.448;2023-06-19T01:48:07;100354.72;;;14.54;100.00
60832;BME280;46665;51.558;-0.448;2023-06-19T01:50:33;100358.84;;;14.51;100.00
60832;BME280;46665;51.558;-0.448;2023-06-19T01:52:58;100361.91;;;14.50;100.00
60832;BME280;46665;51.558;-0.448;2023-06-19T01:55:24;100359.00;;;14.46;100.00
60832;BME280;46665;51.558;-0.448;2023-06-19T01:57:49;100359.28;;;14.45;100.00
60832;BME280;46665;51.558;-0.448;2023-06-19T02:00:15;100356.38;;;14.41;100.00
60832;BME280;46665;51.558;-0.448;2023-06-19T02:02:40;100352.00;;;14.40;100.00
60832;BME280;46665;51.558;-0.448;2023-06-19T02:05:06;100346.38;;;14.37;100.00
60832;BME280;46665;51.558;-0.448;2023-06-19T02:07:31;100348.31;;;14.36;100.00
60832;BME280;46665;51.558;-0.448;2023-06-19T02:09:57;100357.16;;;14.33;100.00
60832;BME280;46665;51.558;-0.448;2023-06-19T02:12:23;100353.72;;;14.27;100.00
60832;BME280;46665;51.558;-0.448;2023-06-19T02:14:49;100357.38;;;14.23;100.00
60832;BME280;46665;51.558;-0.448;2023-06-19T02:17:14;100359.66;;;14.21;100.00
60832;BME280;46665;51.558;-0.448;2023-06-19T02:19:39;100358.81;;;14.20;100.00
60832;BME280;46665;51.558;-0.448;2023-06-19T02:22:05;100356.22;;;14.15;100.00
60832;BME280;46665;51.558;-0.448;2023-06-19T02:24:31;100360.72;;;14.11;100.00
60832;BME280;46665;51.558;-0.448;2023-06-19T02:26:57;100356.66;;;14.08;100.00
60832;BME280;46665;51.558;-0.448;2023-06-19T02:29:22;100359.19;;;14.05;100.00
60832;BME280;46665;51.558;-0.448;2023-06-19T02:31:48;100360.16;;;14.00;100.00
60832;BME280;46665;51.558;-0.448;2023-06-19T02:34:13;100374.13;;;13.99;100.00
60832;BME280;46665;51.558;-0.448;2023-06-19T02:36:39;100381.22;;;14.00;100.00
60832;BME280;46665;51.558;-0.448;2023-06-19T02:39:04;100374.94;;;13.99;100.00
60832;BME280;46665;51.558;-0.448;2023-06-19T02:41:31;100371.69;;;13.97;100.00
60832;BME280;46665;51.558;-0.448;2023-06-19T02:43:56;100373.31;;;13.98;100.00
60832;BME280;46665;51.558;-0.448;2023-06-19T02:46:22;100381.53;;;13.98;100.00
60832;BME280;46665;51.558;-0.448;2023-06-19T02:48:47;100383.09;;;13.91;100.00
60832;BME280;46665;51.558;-0.448;2023-06-19T02:51:13;100387.13;;;13.93;100.00
60832;BME280;46665;51.558;-0.448;2023-06-19T02:53:38;100385.03;;;13.90;100.00
60832;BME280;46665;51.558;-0.448;2023-06-19T02:56:04;100395.25;;;13.84;100.00
60832;BME280;46665;51.558;-0.448;2023-06-19T02:58:30;100398.47;;;13.86;100.00
60832;BME280;46665;51.558;-0.448;2023-06-19T03:00:55;100395.06;;;13.81;100.00
60832;BME280;46665;51.558;-0.448;2023-06-19T03:03:21;100400.31;;;13.77;100.00
60832;BME280;46665;51.558;-0.448;2023-06-19T03:05:48;100401.75;;;13.75;100.00
60832;BME280;46665;51.558;-0.448;2023-06-19T03:08:13;100409.03;;;13.79;100.00
60832;BME280;46665;51.558;-0.448;2023-06-19T03:10:39;100406.63;;;13.78;100.00
60832;BME280;46665;51.558;-0.448;2023-06-19T03:13:04;100406.41;;;13.74;100.00
60832;BME280;46665;51.558;-0.448;2023-06-19T03:15:29;100420.09;;;13.74;100.00
60832;BME280;46665;51.558;-0.448;2023-06-19T03:17:55;100423.25;;;13.68;100.00
60832;BME280;46665;51.558;-0.448;2023-06-19T03:20:20;100431.13;;;13.69;100.00
60832;BME280;46665;51.558;-0.448;2023-06-19T03:22:46;100428.22;;;13.65;100.00
60832;BME280;46665;51.558;-0.448;2023-06-19T03:25:11;100439.78;;;13.62;100.00
60832;BME280;46665;51.558;-0.448;2023-06-19T03:27:37;100439.56;;;13.59;100.00
60832;BME280;46665;51.558;-0.448;2023-06-19T03:30:03;100438.88;;;13.53;100.00
60832;BME280;46665;51.558;-0.448;2023-06-19T03:32:33;100446.47;;;13.56;100.00
60832;BME280;46665;51.558;-0.448;2023-06-19T03:34:58;100444.03;;;13.55;100.00
60832;BME280;46665;51.558;-0.448;2023-06-19T03:37:24;100444.75;;;13.47;100.00
60832;BME280;46665;51.558;-0.448;2023-06-19T03:39:49;100449.09;;;13.48;100.00
60832;BME280;46665;51.558;-0.448;2023-06-19T03:42:15;100449.09;;;13.48;100.00
60832;BME280;46665;51.558;-0.448;2023-06-19T03:44:40;100447.97;;;13.49;100.00
60832;BME280;46665;51.558;-0.448;2023-06-19T03:47:06;100450.09;;;13.52;100.00
60832;BME280;46665;51.558;-0.448;2023-06-19T03:49:31;100458.63;;;13.50;100.00
60832;BME280;46665;51.558;-0.448;2023-06-19T03:51:57;100458.41;;;13.47;100.00
60832;BME280;46665;51.558;-0.448;2023-06-19T03:54:22;100462.25;;;13.46;100.00
60832;BME280;46665;51.558;-0.448;2023-06-19T03:56:48;100465.81;;;13.46;100.00
60832;BME280;46665;51.558;-0.448;2023-06-19T03:59:13;100474.00;;;13.46;100.00
60832;BME280;46665;51.558;-0.448;2023-06-19T04:01:38;100478.47;;;13.42;100.00
60832;BME280;46665;51.558;-0.448;2023-06-19T04:04:04;100472.28;;;13.36;100.00
60832;BME280;46665;51.558;-0.448;2023-06-19T04:06:29;100485.34;;;13.39;100.00
60832;BME280;46665;51.558;-0.448;2023-06-19T04:08:55;100480.47;;;13.36;100.00
60832;BME280;46665;51.558;-0.448;2023-06-19T04:11:20;100488.91;;;13.40;100.00
60832;BME280;46665;51.558;-0.448;2023-06-19T04:13:46;100492.13;;;13.42;100.00
60832;BME280;46665;51.558;-0.448;2023-06-19T04:16:12;100495.16;;;13.40;100.00
60832;BME280;46665;51.558;-0.448;2023-06-19T04:18:37;100492.44;;;13.40;100.00
60832;BME280;46665;51.558;-0.448;2023-06-19T04:21:03;100493.84;;;13.38;100.00
60832;BME280;46665;51.558;-0.448;2023-06-19T04:23:28;100504.16;;;13.41;100.00
60832;BME280;46665;51.558;-0.448;2023-06-19T04:25:53;100501.16;;;13.42;100.00
60832;BME280;46665;51.558;-0.448;2023-06-19T04:28:19;100503.25;;;13.46;100.00
60832;BME280;46665;51.558;-0.448;2023-06-19T04:30:44;100495.34;;;13.44;100.00
60832;BME280;46665;51.558;-0.448;2023-06-19T04:33:10;100489.69;;;13.40;100.00
60832;BME280;46665;51.558;-0.448;2023-06-19T04:35:35;100497.00;;;13.45;100.00
60832;BME280;46665;51.558;-0.448;2023-06-19T04:38:08;100501.22;;;13.51;100.00
60832;BME280;46665;51.558;-0.448;2023-06-19T04:40:34;100502.03;;;13.52;100.00
60832;BME280;46665;51.558;-0.448;2023-06-19T04:43:03;100503.06;;;13.56;100.00
60832;BME280;46665;51.558;-0.448;2023-06-19T04:45:30;100516.44;;;13.57;100.00
60832;BME280;46665;51.558;-0.448;2023-06-19T04:47:56;100509.34;;;13.56;100.00
60832;BME280;46665;51.558;-0.448;2023-06-19T04:50:21;100524.03;;;13.60;100.00
60832;BME280;46665;51.558;-0.448;2023-06-19T04:52:48;100528.38;;;13.61;100.00
60832;BME280;46665;51.558;-0.448;2023-06-19T04:55:15;100534.34;;;13.63;100.00
60832;BME280;46665;51.558;-0.448;2023-06-19T04:57:41;100538.09;;;13.68;100.00
60832;BME280;46665;51.558;-0.448;2023-06-19T05:00:06;100532.63;;;13.68;100.00
60832;BME280;46665;51.558;-0.448;2023-06-19T05:02:33;100535.03;;;13.69;100.00
60832;BME280;46665;51.558;-0.448;2023-06-19T05:04:59;100528.56;;;13.79;100.00
60832;BME280;46665;51.558;-0.448;2023-06-19T05:07:31;100527.75;;;13.78;100.00
60832;BME280;46665;51.558;-0.448;2023-06-19T05:09:57;100530.78;;;13.77;100.00
60832;BME280;46665;51.558;-0.448;2023-06-19T05:12:23;100538.38;;;13.80;100.00
60832;BME280;46665;51.558;-0.448;2023-06-19T05:14:48;100533.84;;;13.75;100.00
60832;BME280;46665;51.558;-0.448;2023-06-19T05:17:14;100530.38;;;13.83;100.00
60832;BME280;46665;51.558;-0.448;2023-06-19T05:19:40;100533.81;;;13.89;100.00
60832;BME280;46665;51.558;-0.448;2023-06-19T05:22:05;100528.44;;;13.98;100.00
60832;BME280;46665;51.558;-0.448;2023-06-19T05:24:32;100529.75;;;14.00;100.00
60832;BME280;46665;51.558;-0.448;2023-06-19T05:26:57;100518.38;;;14.07;100.00
60832;BME280;46665;51.558;-0.448;2023-06-19T05:29:22;100527.72;;;14.06;100.00
60832;BME280;46665;51.558;-0.448;2023-06-19T05:31:48;100534.91;;;14.16;100.00
60832;BME280;46665;51.558;-0.448;2023-06-19T05:34:13;100538.13;;;14.18;100.00
60832;BME280;46665;51.558;-0.448;2023-06-19T05:36:38;100541.56;;;14.23;100.00
60832;BME280;46665;51.558;-0.448;2023-06-19T05:39:04;100537.41;;;14.26;100.00
60832;BME280;46665;51.558;-0.448;2023-06-19T05:41:29;100535.88;;;14.34;100.00
60832;BME280;46665;51.558;-0.448;2023-06-19T05:43:56;100550.06;;;14.36;100.00
60832;BME280;46665;51.558;-0.448;2023-06-19T05:46:21;100540.91;;;14.40;100.00
60832;BME280;46665;51.558;-0.448;2023-06-19T05:48:47;100548.81;;;14.42;100.00
60832;BME280;46665;51.558;-0.448;2023-06-19T05:51:14;100541.59;;;14.46;100.00
60832;BME280;46665;51.558;-0.448;2023-06-19T05:53:39;100547.78;;;14.51;100.00
60832;BME280;46665;51.558;-0.448;2023-06-19T05:56:05;100554.59;;;14.54;100.00
60832;BME280;46665;51.558;-0.448;2023-06-19T05:58:32;100551.72;;;14.59;100.00
60832;BME280;46665;51.558;-0.448;2023-06-19T06:00:57;100548.06;;;14.64;100.00
60832;BME280;46665;51.558;-0.448;2023-06-19T06:03:24;100552.91;;;14.67;100.00
60832;BME280;46665;51.558;-0.448;2023-06-19T06:05:50;100561.50;;;14.74;100.00
60832;BME280;46665;51.558;-0.448;2023-06-19T06:08:16;100545.25;;;14.78;100.00
60832;BME280;46665;51.558;-0.448;2023-06-19T06:10:41;100554.13;;;14.83;100.00
60832;BME280;46665;51.558;-0.448;2023-06-19T06:13:06;100554.00;;;14.88;100.00
60832;BME280;46665;51.558;-0.448;2023-06-19T06:15:32;100565.03;;;14.97;100.00
60832;BME280;46665;51.558;-0.448;2023-06-19T06:17:57;100561.81;;;14.95;100.00
60832;BME280;46665;51.558;-0.448;2023-06-19T06:20:23;100561.50;;;14.97;100.00
60832;BME280;46665;51.558;-0.448;2023-06-19T06:22:48;100569.25;;;15.03;100.00
60832;BME280;46665;51.558;-0.448;2023-06-19T06:25:13;100567.31;;;15.04;100.00
60832;BME280;46665;51.558;-0.448;2023-06-19T06:27:39;100574.69;;;15.17;100.00
60832;BME280;46665;51.558;-0.448;2023-06-19T06:30:06;100580.84;;;15.23;100.00
60832;BME280;46665;51.558;-0.448;2023-06-19T06:32:31;100571.69;;;15.27;100.00
60832;BME280;46665;51.558;-0.448;2023-06-19T06:34:57;100570.41;;;15.33;100.00
60832;BME280;46665;51.558;-0.448;2023-06-19T06:37:24;100582.53;;;15.41;100.00
60832;BME280;46665;51.558;-0.448;2023-06-19T06:39:49;100574.31;;;15.41;100.00
60832;BME280;46665;51.558;-0.448;2023-06-19T06:42:15;100576.75;;;15.43;100.00
60832;BME280;46665;51.558;-0.448;2023-06-19T06:44:41;100568.69;;;15.46;100.00
60832;BME280;46665;51.558;-0.448;2023-06-19T06:47:06;100573.75;;;15.53;100.00
60832;BME280;46665;51.558;-0.448;2023-06-19T06:49:32;100578.94;;;15.63;100.00
60832;BME280;46665;51.558;-0.448;2023-06-19T06:51:57;100588.34;;;15.71;100.00
60832;BME280;46665;51.558;-0.448;2023-06-19T06:54:22;100587.56;;;15.79;100.00
60832;BME280;46665;51.558;-0.448;2023-06-19T06:56:48;100588.88;;;15.81;100.00
60832;BME280;46665;51.558;-0.448;2023-06-19T06:59:13;100588.22;;;15.85;100.00
60832;BME280;46665;51.558;-0.448;2023-06-19T07:01:41;100586.63;;;15.84;100.00
60832;BME280;46665;51.558;-0.448;2023-06-19T07:04:07;100581.78;;;15.80;100.00
60832;BME280;46665;51.558;-0.448;2023-06-19T07:06:32;100592.91;;;15.84;100.00
60832;BME280;46665;51.558;-0.448;2023-06-19T07:08:58;100585.03;;;15.82;100.00
60832;BME280;46665;51.558;-0.448;2023-06-19T07:11:23;100584.53;;;15.89;100.00
60832;BME280;46665;51.558;-0.448;2023-06-19T07:13:48;100578.91;;;15.94;100.00
60832;BME280;46665;51.558;-0.448;2023-06-19T07:16:14;100583.75;;;15.97;100.00
60832;BME280;46665;51.558;-0.448;2023-06-19T07:18:39;100580.06;;;16.02;100.00
60832;BME280;46665;51.558;-0.448;2023-06-19T07:21:13;100587.03;;;16.08;100.00
60832;BME280;46665;51.558;-0.448;2023-06-19T07:23:40;100579.25;;;16.10;100.00
60832;BME280;46665;51.558;-0.448;2023-06-19T07:26:06;100570.06;;;16.15;100.00
60832;BME280;46665;51.558;-0.448;2023-06-19T07:28:31;100582.84;;;16.19;100.00
60832;BME280;46665;51.558;-0.448;2023-06-19T07:30:56;100576.09;;;16.25;100.00
60832;BME280;46665;51.558;-0.448;2023-06-19T07:33:22;100590.31;;;16.36;100.00
60832;BME280;46665;51.558;-0.448;2023-06-19T07:35:47;100591.94;;;16.46;100.00
60832;BME280;46665;51.558;-0.448;2023-06-19T07:38:13;100590.63;;;16.52;100.00
60832;BME280;46665;51.558;-0.448;2023-06-19T07:40:38;100599.84;;;16.56;100.00
60832;BME280;46665;51.558;-0.448;2023-06-19T07:43:04;100592.75;;;16.64;100.00
60832;BME280;46665;51.558;-0.448;2023-06-19T07:45:29;100602.47;;;16.79;100.00
60832;BME280;46665;51.558;-0.448;2023-06-19T07:47:57;100601.31;;;16.88;100.00
60832;BME280;46665;51.558;-0.448;2023-06-19T07:50:23;100595.81;;;16.97;100.00
60832;BME280;46665;51.558;-0.448;2023-06-19T07:52:48;100603.28;;;16.97;100.00
60832;BME280;46665;51.558;-0.448;2023-06-19T07:55:14;100597.13;;;17.00;100.00
60832;BME280;46665;51.558;-0.448;2023-06-19T07:57:39;100598.41;;;17.02;100.00
60832;BME280;46665;51.558;-0.448;2023-06-19T08:00:05;100602.09;;;17.06;100.00
60832;BME280;46665;51.558;-0.448;2023-06-19T08:02:37;100599.03;;;17.08;100.00
60832;BME280;46665;51.558;-0.448;2023-06-19T08:05:02;100604.38;;;17.22;100.00
60832;BME280;46665;51.558;-0.448;2023-06-19T08:07:29;100593.81;;;17.24;100.00
60832;BME280;46665;51.558;-0.448;2023-06-19T08:09:54;100595.78;;;17.23;100.00
60832;BME280;46665;51.558;-0.448;2023-06-19T08:12:21;100597.72;;;17.23;100.00
60832;BME280;46665;51.558;-0.448;2023-06-19T08:14:46;100594.16;;;17.22;100.00
60832;BME280;46665;51.558;-0.448;2023-06-19T08:17:12;100592.84;;;17.28;100.00
60832;BME280;46665;51.558;-0.448;2023-06-19T08:19:37;100599.31;;;17.32;100.00
60832;BME280;46665;51.558;-0.448;2023-06-19T08:22:05;100595.41;;;17.42;100.00
60832;BME280;46665;51.558;-0.448;2023-06-19T08:24:30;100604.91;;;17.53;100.00
60832;BME280;46665;51.558;-0.448;2023-06-19T08:26:56;100598.75;;;17.57;100.00
60832;BME280;46665;51.558;-0.448;2023-06-19T08:29:21;100598.72;;;17.65;100.00
60832;BME280;46665;51.558;-0.448;2023-06-19T08:31:47;100597.06;;;17.73;100.00
60832;BME280;46665;51.558;-0.448;2023-06-19T08:34:13;100593.78;;;17.88;100.00
60832;BME280;46665;51.558;-0.448;2023-06-19T08:36:38;100598.56;;;18.00;100.00
60832;BME280;46665;51.558;-0.448;2023-06-19T08:39:04;100601.44;;;18.12;100.00
60832;BME280;46665;51.558;-0.448;2023-06-19T08:41:29;100599.91;;;18.24;100.00
60832;BME280;46665;51.558;-0.448;2023-06-19T08:43:55;100596.50;;;18.27;100.00
60832;BME280;46665;51.558;-0.448;2023-06-19T08:46:20;100593.06;;;18.30;100.00
60832;BME280;46665;51.558;-0.448;2023-06-19T08:48:46;100593.84;;;18.30;100.00
60832;BME280;46665;51.558;-0.448;2023-06-19T08:51:12;100593.06;;;18.30;100.00
60832;BME280;46665;51.558;-0.448;2023-06-19T08:53:54;100597.38;;;18.39;100.00
60832;BME280;46665;51.558;-0.448;2023-06-19T08:56:20;100605.31;;;18.41;100.00
60832;BME280;46665;51.558;-0.448;2023-06-19T08:58:45;100607.78;;;18.55;100.00
60832;BME280;46665;51.558;-0.448;2023-06-19T09:01:11;100603.72;;;18.61;100.00
60832;BME280;46665;51.558;-0.448;2023-06-19T09:03:36;100614.44;;;18.75;100.00
60832;BME280;46665;51.558;-0.448;2023-06-19T09:06:08;100616.09;;;18.97;100.00
60832;BME280;46665;51.558;-0.448;2023-06-19T09:08:33;100622.66;;;19.04;100.00
60832;BME280;46665;51.558;-0.448;2023-06-19T09:11:03;100611.63;;;19.04;100.00
60832;BME280;46665;51.558;-0.448;2023-06-19T09:13:30;100622.19;;;19.02;100.00
60832;BME280;46665;51.558;-0.448;2023-06-19T09:16:06;100618.47;;;18.98;99.05
60832;BME280;46665;51.558;-0.448;2023-06-19T09:18:44;100613.16;;;19.14;100.00
60832;BME280;46665;51.558;-0.448;2023-06-19T09:21:17;100608.94;;;19.29;99.01
60832;BME280;46665;51.558;-0.448;2023-06-19T09:23:44;100605.72;;;19.39;99.15
60832;BME280;46665;51.558;-0.448;2023-06-19T09:26:09;100613.69;;;19.41;96.74
60832;BME280;46665;51.558;-0.448;2023-06-19T09:28:40;100613.13;;;19.47;98.12
60832;BME280;46665;51.558;-0.448;2023-06-19T09:31:06;100601.25;;;19.47;96.33
60832;BME280;46665;51.558;-0.448;2023-06-19T09:33:33;100619.56;;;19.52;92.14
60832;BME280;46665;51.558;-0.448;2023-06-19T09:35:59;100627.41;;;19.62;91.47
60832;BME280;46665;51.558;-0.448;2023-06-19T09:38:27;100626.53;;;19.70;92.50
60832;BME280;46665;51.558;-0.448;2023-06-19T09:40:55;100631.47;;;19.77;91.93
60832;BME280;46665;51.558;-0.448;2023-06-19T09:45:56;100621.13;;;19.86;91.65
60832;BME280;46665;51.558;-0.448;2023-06-19T09:48:28;100631.03;;;19.99;92.34
60832;BME280;46665;51.558;-0.448;2023-06-19T09:50:59;100621.38;;;20.05;94.27
60832;BME280;46665;51.558;-0.448;2023-06-19T09:53:25;100616.66;;;20.18;91.40
60832;BME280;46665;51.558;-0.448;2023-06-19T09:55:51;100621.16;;;20.10;89.95
60832;BME280;46665;51.558;-0.448;2023-06-19T09:58:19;100630.09;;;20.20;91.44
60832;BME280;46665;51.558;-0.448;2023-06-19T10:00:46;100622.84;;;20.15;88.72
60832;BME280;46665;51.558;-0.448;2023-06-19T10:03:13;100615.25;;;20.12;89.64
60832;BME280;46665;51.558;-0.448;2023-06-19T10:05:39;100612.41;;;20.08;88.82
60832;BME280;46665;51.558;-0.448;2023-06-19T10:08:08;100631.97;;;20.03;88.16
60832;BME280;46665;51.558;-0.448;2023-06-19T10:10:34;100613.91;;;20.06;88.17
60832;BME280;46665;51.558;-0.448;2023-06-19T10:13:11;100610.34;;;20.05;87.68
60832;BME280;46665;51.558;-0.448;2023-06-19T10:15:40;100618.81;;;20.12;89.37
60832;BME280;46665;51.558;-0.448;2023-06-19T10:18:07;100612.00;;;20.34;88.27
60832;BME280;46665;51.558;-0.448;2023-06-19T10:20:35;100623.38;;;20.45;87.15
60832;BME280;46665;51.558;-0.448;2023-06-19T10:23:14;100626.63;;;20.60;89.79
60832;BME280;46665;51.558;-0.448;2023-06-19T10:25:45;100626.03;;;20.66;88.63
60832;BME280;46665;51.558;-0.448;2023-06-19T10:28:31;100624.31;;;20.62;85.88
60832;BME280;46665;51.558;-0.448;2023-06-19T10:33:29;100621.28;;;21.07;83.64
60832;BME280;46665;51.558;-0.448;2023-06-19T10:35:56;100626.81;;;21.07;80.43
60832;BME280;46665;51.558;-0.448;2023-06-19T10:38:22;100627.19;;;20.93;80.20
60832;BME280;46665;51.558;-0.448;2023-06-19T10:40:48;100606.59;;;20.91;80.56
60832;BME280;46665;51.558;-0.448;2023-06-19T10:43:20;100624.81;;;20.92;79.32
60832;BME280;46665;51.558;-0.448;2023-06-19T10:45:46;100611.53;;;20.97;80.25
60832;BME280;46665;51.558;-0.448;2023-06-19T10:48:11;100610.47;;;21.02;78.79
60832;BME280;46665;51.558;-0.448;2023-06-19T10:50:43;100606.00;;;20.97;80.91
60832;BME280;46665;51.558;-0.448;2023-06-19T10:53:08;100614.16;;;20.94;79.06
60832;BME280;46665;51.558;-0.448;2023-06-19T10:55:34;100603.09;;;20.94;80.39
60832;BME280;46665;51.558;-0.448;2023-06-19T10:57:59;100604.19;;;20.89;81.44
60832;BME280;46665;51.558;-0.448;2023-06-19T11:00:27;100607.16;;;20.96;81.86
60832;BME280;46665;51.558;-0.448;2023-06-19T11:02:53;100612.06;;;21.03;79.22
60832;BME280;46665;51.558;-0.448;2023-06-19T11:05:23;100606.66;;;21.07;79.47
60832;BME280;46665;51.558;-0.448;2023-06-19T11:07:58;100610.84;;;21.16;79.91
60832;BME280;46665;51.558;-0.448;2023-06-19T11:10:27;100610.69;;;21.25;79.78
60832;BME280;46665;51.558;-0.448;2023-06-19T11:12:54;100607.66;;;21.30;80.06
60832;BME280;46665;51.558;-0.448;2023-06-19T11:15:28;100607.25;;;21.44;80.72
60832;BME280;46665;51.558;-0.448;2023-06-19T11:17:53;100604.06;;;21.58;77.90
60832;BME280;46665;51.558;-0.448;2023-06-19T11:20:19;100596.03;;;21.53;79.34
60832;BME280;46665;51.558;-0.448;2023-06-19T11:22:44;100604.22;;;21.49;79.91
60832;BME280;46665;51.558;-0.448;2023-06-19T11:25:10;100606.13;;;21.45;77.24
60832;BME280;46665;51.558;-0.448;2023-06-19T11:27:37;100600.31;;;21.50;78.50
60832;BME280;46665;51.558;-0.448;2023-06-19T11:30:05;100600.22;;;21.47;78.25
60832;BME280;46665;51.558;-0.448;2023-06-19T11:32:38;100605.34;;;21.32;79.17
60832;BME280;46665;51.558;-0.448;2023-06-19T11:35:11;100604.16;;;21.17;81.27
60832;BME280;46665;51.558;-0.448;2023-06-19T11:37:39;100606.66;;;21.07;79.21
60832;BME280;46665;51.558;-0.448;2023-06-19T11:40:05;100605.72;;;21.03;80.05
60832;BME280;46665;51.558;-0.448;2023-06-19T11:42:52;100608.91;;;21.17;80.33
60832;BME280;46665;51.558;-0.448;2023-06-19T11:45:17;100597.75;;;21.29;80.88
60832;BME280;46665;51.558;-0.448;2023-06-19T11:47:44;100586.03;;;21.48;81.41
60832;BME280;46665;51.558;-0.448;2023-06-19T11:50:10;100596.03;;;21.69;81.10
60832;BME280;46665;51.558;-0.448;2023-06-19T11:52:36;100602.72;;;21.52;78.98
60832;BME280;46665;51.558;-0.448;2023-06-19T11:55:01;100599.91;;;21.36;79.97
60832;BME280;46665;51.558;-0.448;2023-06-19T11:57:27;100597.06;;;21.32;80.12
60832;BME280;46665;51.558;-0.448;2023-06-19T11:59:52;100599.84;;;21.64;79.30
60832;BME280;46665;51.558;-0.448;2023-06-19T12:02:18;100592.00;;;21.66;78.24
60832;BME280;46665;51.558;-0.448;2023-06-19T12:04:43;100596.81;;;21.53;78.15
60832;BME280;46665;51.558;-0.448;2023-06-19T12:07:08;100598.97;;;21.60;78.22
60832;BME280;46665;51.558;-0.448;2023-06-19T12:09:34;100603.34;;;21.77;79.23
60832;BME280;46665;51.558;-0.448;2023-06-19T12:12:00;100600.03;;;21.71;75.54
60832;BME280;46665;51.558;-0.448;2023-06-19T12:14:27;100595.31;;;21.56;75.56
60832;BME280;46665;51.558;-0.448;2023-06-19T12:16:53;100593.06;;;21.77;76.33
60832;BME280;46665;51.558;-0.448;2023-06-19T12:19:19;100603.78;;;21.95;76.74
60832;BME280;46665;51.558;-0.448;2023-06-19T12:21:45;100598.56;;;22.25;74.77
60832;BME280;46665;51.558;-0.448;2023-06-19T12:24:10;100601.94;;;22.34;73.20
60832;BME280;46665;51.558;-0.448;2023-06-19T12:26:36;100600.50;;;22.40;72.23
60832;BME280;46665;51.558;-0.448;2023-06-19T12:29:03;100593.53;;;22.31;73.52
60832;BME280;46665;51.558;-0.448;2023-06-19T12:31:29;100592.44;;;22.51;72.77
60832;BME280;46665;51.558;-0.448;2023-06-19T12:33:56;100602.06;;;22.57;69.73
60832;BME280;46665;51.558;-0.448;2023-06-19T12:36:21;100588.25;;;22.41;68.64